createdAt,value
2018-02-17T07:56:56.095Z,33.51
2018-02-17T07:58:00.801Z,37.41
2018-02-17T07:59:05.619Z,36.68
2018-02-17T08:00:10.638Z,36.26
2018-02-17T08:01:15.356Z,38.42
2018-02-17T08:02:20.547Z,38.92
2018-02-17T08:03:25.333Z,37.14
2018-02-17T08:04:30.219Z,37.46
2018-02-17T08:05:35.040Z,39.23
2018-02-17T08:06:39.960Z,38.62
2018-02-17T08:07:44.773Z,38.81
2018-02-17T08:08:50.004Z,39.79
2018-02-17T08:09:54.893Z,40.49
2018-02-17T08:10:59.671Z,41.23
2018-02-17T08:12:04.706Z,39.00
2018-02-17T08:13:09.495Z,39.02
2018-02-17T08:14:14.409Z,39.87
2018-02-17T08:15:20.175Z,39.84
2018-02-17T08:16:25.022Z,40.45
2018-02-17T08:17:29.840Z,41.24
2018-02-17T08:18:34.647Z,41.17
2018-02-17T08:19:39.467Z,42.01
2018-02-17T08:20:44.277Z,42.48
2018-02-17T08:21:49.295Z,42.51
2018-02-17T08:22:54.359Z,43.25
2018-02-17T08:23:59.108Z,43.20
2018-02-17T08:25:03.862Z,43.04
2018-02-17T08:26:08.512Z,42.61
2018-02-17T08:27:13.156Z,41.55
2018-02-17T08:28:18.109Z,41.18
2018-02-17T08:29:22.792Z,41.44
2018-02-17T08:30:27.568Z,40.90
2018-02-17T08:31:32.277Z,40.93
2018-02-17T08:32:36.924Z,40.36
2018-02-17T08:33:41.694Z,40.52
2018-02-17T08:34:46.940Z,40.22
2018-02-17T08:35:51.680Z,39.83
2018-02-17T08:36:56.324Z,40.33
2018-02-17T08:38:00.965Z,40.02
2018-02-17T08:39:06.336Z,40.04
2018-02-17T08:40:10.806Z,40.08
2018-02-17T08:41:15.810Z,39.72
2018-02-17T08:42:20.321Z,39.80
2018-02-17T08:43:24.803Z,39.97
2018-02-17T08:44:29.271Z,39.69
2018-02-17T08:45:33.870Z,39.27
2018-02-17T08:46:38.356Z,39.36
2018-02-17T08:47:43.940Z,38.98
2018-02-17T08:48:48.590Z,38.62
2018-02-17T08:49:53.410Z,38.58
2018-02-17T08:50:58.179Z,38.22
2018-02-17T08:52:02.938Z,38.33
2018-02-17T08:53:07.627Z,38.03
2018-02-17T08:54:12.826Z,37.89
2018-02-17T08:55:17.652Z,37.90
2018-02-17T08:56:22.548Z,37.58
2018-02-17T08:57:27.412Z,37.15
2018-02-17T08:58:32.173Z,37.45
2018-02-17T08:59:37.617Z,37.16
2018-02-17T09:00:42.709Z,37.17
2018-02-17T09:01:47.558Z,36.95
2018-02-17T09:02:52.331Z,36.95
2018-02-17T09:03:57.140Z,36.78
2018-02-17T09:05:02.170Z,36.54
2018-02-17T09:06:06.978Z,36.34
2018-02-17T09:07:12.163Z,36.39
2018-02-17T09:08:17.031Z,36.21
2018-02-17T09:09:21.843Z,36.16
2018-02-17T09:10:30.835Z,36.00
2018-02-17T09:11:35.741Z,35.68
2018-02-17T09:12:40.522Z,35.64
2018-02-17T09:13:45.746Z,35.46
2018-02-17T09:14:50.369Z,35.34
2018-02-17T09:15:54.990Z,35.32
2018-02-17T09:16:59.637Z,35.13
2018-02-17T09:18:04.495Z,35.04
2018-02-17T09:19:09.250Z,35.04
2018-02-17T09:20:14.269Z,34.91
2018-02-17T09:21:18.956Z,34.95
2018-02-17T09:22:24.756Z,34.89
2018-02-17T09:23:29.451Z,34.82
2018-02-17T09:24:34.103Z,34.78
2018-02-17T09:25:38.964Z,34.92
2018-02-17T09:26:44.584Z,34.64
2018-02-17T09:27:49.509Z,34.73
2018-02-17T09:28:54.456Z,34.80
2018-02-17T09:29:59.305Z,35.48
2018-02-17T09:31:05.251Z,35.25
2018-02-17T09:32:10.429Z,35.24
2018-02-17T09:33:15.302Z,35.04
2018-02-17T09:34:20.493Z,35.81
2018-02-17T09:35:25.258Z,36.26
2018-02-17T09:36:30.118Z,36.70
2018-02-17T09:37:34.851Z,37.01
2018-02-17T09:38:39.884Z,36.93
2018-02-17T09:39:44.648Z,37.29
2018-02-17T09:40:49.542Z,36.62
2018-02-17T09:41:54.436Z,35.58
2018-02-17T09:42:59.475Z,35.55
2018-02-17T09:44:04.357Z,36.15
2018-02-17T09:45:09.579Z,35.69
2018-02-17T09:46:14.429Z,35.42
2018-02-17T09:47:19.270Z,35.69
2018-02-17T09:48:24.122Z,35.10
2018-02-17T09:49:28.954Z,34.35
2018-02-17T09:50:33.751Z,34.57
2018-02-17T09:51:39.053Z,34.49
2018-02-17T09:52:44.009Z,34.25
2018-02-17T09:53:48.996Z,34.40
2018-02-17T09:54:53.919Z,33.79
2018-02-17T09:55:58.832Z,33.41
2018-02-17T09:57:03.714Z,33.37
2018-02-17T09:58:09.032Z,33.27
2018-02-17T09:59:13.868Z,33.10
2018-02-17T10:00:18.718Z,33.25
2018-02-17T10:01:23.594Z,33.25
2018-02-17T10:02:28.682Z,33.42
2018-02-17T10:03:33.550Z,33.17
